createdAt,value
2017-12-21T00:01:13.708Z,15.47
2017-12-21T00:03:41.970Z,13.13
2017-12-21T00:06:09.470Z,13.70
2017-12-21T00:08:36.960Z,13.23
2017-12-21T00:11:04.431Z,15.87
2017-12-21T00:13:32.005Z,12.00
2017-12-21T00:15:59.492Z,12.40
2017-12-21T00:18:27.743Z,13.80
2017-12-21T00:20:57.867Z,11.60
2017-12-21T00:23:25.351Z,12.93
2017-12-21T00:25:52.834Z,16.33
2017-12-21T00:28:20.303Z,12.80
2017-12-21T00:30:47.796Z,14.73
2017-12-21T00:33:15.260Z,14.53
2017-12-21T00:35:42.756Z,15.40
2017-12-21T00:38:10.231Z,17.07
2017-12-21T00:40:37.715Z,14.07
2017-12-21T00:43:05.199Z,19.57
2017-12-21T00:45:33.422Z,15.80
2017-12-21T00:48:00.902Z,17.67
2017-12-21T00:50:28.382Z,12.97
2017-12-21T00:52:56.622Z,14.40
2017-12-21T00:55:24.151Z,10.77
2017-12-21T00:57:51.641Z,18.03
2017-12-21T01:00:19.135Z,12.07
2017-12-21T01:02:46.608Z,13.53
2017-12-21T01:05:14.085Z,15.90
2017-12-21T01:07:41.572Z,13.50
2017-12-21T01:10:09.031Z,14.70
2017-12-21T01:12:36.507Z,12.43
2017-12-21T01:15:04.024Z,11.80
2017-12-21T01:17:31.492Z,12.57
2017-12-21T01:19:58.991Z,13.30
2017-12-21T01:22:26.462Z,12.77
2017-12-21T01:24:54.676Z,12.40
2017-12-21T01:27:22.170Z,15.30
2017-12-21T01:29:49.638Z,12.93
2017-12-21T01:32:17.886Z,11.43
2017-12-21T01:34:45.341Z,13.93
2017-12-21T01:37:12.836Z,14.77
2017-12-21T01:39:41.105Z,14.73
2017-12-21T01:42:09.344Z,11.83
2017-12-21T01:44:36.824Z,12.03
2017-12-21T01:47:04.302Z,15.20
2017-12-21T01:49:32.547Z,10.60
2017-12-21T01:52:00.028Z,12.10
2017-12-21T01:54:27.482Z,13.03
2017-12-21T01:56:55.748Z,11.63
2017-12-21T01:59:23.209Z,10.57
2017-12-21T02:01:50.667Z,11.10
2017-12-21T02:04:18.202Z,11.57
2017-12-21T02:06:45.635Z,11.27
2017-12-21T02:09:13.125Z,14.67
2017-12-21T02:11:40.590Z,11.07
2017-12-21T02:14:08.070Z,10.90
2017-12-21T02:16:35.583Z,13.67
2017-12-21T02:19:03.044Z,12.70
2017-12-21T02:21:30.514Z,16.00
2017-12-21T02:23:57.973Z,21.13
2017-12-21T02:26:25.476Z,25.53
2017-12-21T02:28:53.743Z,14.03
2017-12-21T02:31:21.206Z,10.77
2017-12-21T02:33:48.686Z,10.80
2017-12-21T02:36:16.154Z,9.83
2017-12-21T02:38:44.433Z,11.20
2017-12-21T02:41:11.900Z,10.93
2017-12-21T02:43:39.383Z,10.50
2017-12-21T02:46:07.642Z,11.77
2017-12-21T02:48:35.113Z,11.53
2017-12-21T02:51:02.577Z,12.70
2017-12-21T02:53:30.033Z,13.30
2017-12-21T02:55:58.255Z,11.77
2017-12-21T02:58:26.001Z,12.40
2017-12-21T03:00:53.472Z,11.80
2017-12-21T03:03:20.972Z,12.80
2017-12-21T03:05:48.437Z,11.83
2017-12-21T03:08:15.917Z,17.90
2017-12-21T03:10:43.410Z,12.17
2017-12-21T03:13:10.886Z,12.10
2017-12-21T03:15:38.418Z,11.27
2017-12-21T03:18:06.624Z,12.47
2017-12-21T03:20:34.098Z,9.53
2017-12-21T03:23:01.597Z,10.30
2017-12-21T03:25:29.065Z,10.50
2017-12-21T03:27:56.536Z,9.33
2017-12-21T03:30:24.031Z,11.33
2017-12-21T03:32:51.500Z,10.40
2017-12-21T03:35:19.771Z,10.20
2017-12-21T03:37:48.008Z,10.80
2017-12-21T03:40:15.488Z,9.90
2017-12-21T03:42:42.956Z,10.87
2017-12-21T03:45:10.427Z,9.10
2017-12-21T03:47:38.675Z,8.10
2017-12-21T03:50:06.166Z,7.57
2017-12-21T03:52:34.433Z,7.03
2017-12-21T03:55:02.650Z,9.10
2017-12-21T03:57:30.126Z,7.60
2017-12-21T03:59:57.622Z,6.83
2017-12-21T04:02:25.866Z,7.37
2017-12-21T04:04:53.353Z,7.50
2017-12-21T04:07:21.592Z,7.00
2017-12-21T04:09:49.057Z,8.07
2017-12-21T04:12:16.521Z,6.47
2017-12-21T04:14:43.983Z,6.80
2017-12-21T04:17:11.470Z,7.70
2017-12-21T04:19:39.686Z,7.17
2017-12-21T04:22:07.141Z,7.20
2017-12-21T04:24:34.637Z,7.93
2017-12-21T04:27:02.183Z,8.57
2017-12-21T04:29:29.647Z,8.70
2017-12-21T04:31:57.140Z,9.10
2017-12-21T04:34:24.596Z,8.50
2017-12-21T04:36:52.088Z,7.33
2017-12-21T04:39:19.542Z,7.50
2017-12-21T04:41:47.005Z,8.13
2017-12-21T04:44:14.515Z,6.77
2017-12-21T04:46:42.743Z,7.80
2017-12-21T04:49:10.227Z,7.27
2017-12-21T04:51:38.447Z,7.80
2017-12-21T04:54:06.027Z,6.60
2017-12-21T04:56:33.533Z,6.90
2017-12-21T04:59:01.766Z,7.30
2017-12-21T05:01:29.272Z,6.77
2017-12-21T05:03:56.743Z,9.00
2017-12-21T05:06:24.249Z,7.90
2017-12-21T05:08:51.726Z,8.17
2017-12-21T05:11:19.217Z,7.87
2017-12-21T05:13:46.688Z,6.97
2017-12-21T05:16:14.156Z,6.80
2017-12-21T05:18:41.661Z,6.30
2017-12-21T05:21:09.123Z,8.43
2017-12-21T05:23:37.359Z,7.27
2017-12-21T05:26:04.865Z,8.73
2017-12-21T05:28:32.333Z,8.13
2017-12-21T05:30:59.814Z,8.37
2017-12-21T05:33:27.285Z,8.20
2017-12-21T05:35:54.752Z,7.87
2017-12-21T05:38:22.207Z,7.83
2017-12-21T05:40:49.687Z,8.23
2017-12-21T05:43:17.178Z,8.27
2017-12-21T05:45:44.649Z,7.20
2017-12-21T05:48:12.117Z,6.53
2017-12-21T05:50:39.607Z,6.60
2017-12-21T05:53:07.078Z,7.23
2017-12-21T05:55:35.326Z,6.33
2017-12-21T05:58:02.811Z,6.80
2017-12-21T06:00:30.285Z,6.73
2017-12-21T06:02:58.495Z,5.83
2017-12-21T06:05:25.969Z,5.40
2017-12-21T06:07:53.472Z,6.60
2017-12-21T06:10:21.708Z,6.07
2017-12-21T06:12:49.175Z,5.90
2017-12-21T06:15:16.621Z,5.90
2017-12-21T06:17:44.214Z,6.20
2017-12-21T06:20:11.707Z,5.83
2017-12-21T06:22:39.162Z,5.60
2017-12-21T06:25:06.630Z,6.37
2017-12-21T06:27:34.094Z,6.43
2017-12-21T06:30:01.546Z,5.87
2017-12-21T06:32:29.011Z,5.63
2017-12-21T06:34:56.466Z,6.10
2017-12-21T06:37:23.949Z,7.20
2017-12-21T06:39:51.408Z,7.60
2017-12-21T06:42:18.877Z,7.50
2017-12-21T06:44:46.350Z,6.03
2017-12-21T06:47:14.576Z,6.73
2017-12-21T06:49:42.047Z,7.80
2017-12-21T06:52:09.537Z,7.20
2017-12-21T06:54:37.760Z,7.77
2017-12-21T06:57:05.230Z,10.13
2017-12-21T06:59:32.751Z,11.90
2017-12-21T07:02:00.244Z,9.43
2017-12-21T07:04:27.711Z,11.50
2017-12-21T07:06:55.186Z,12.97
2017-12-21T07:09:22.666Z,25.90
2017-12-21T07:11:50.144Z,24.27
2017-12-21T07:14:17.618Z,10.73
2017-12-21T07:16:45.110Z,14.97
2017-12-21T07:19:12.572Z,13.47
2017-12-21T07:21:40.067Z,11.57
2017-12-21T07:24:07.534Z,10.33
2017-12-21T07:26:35.024Z,10.53
2017-12-21T07:29:02.491Z,11.90
2017-12-21T07:31:29.956Z,10.40
2017-12-21T07:33:57.440Z,9.17
2017-12-21T07:36:24.908Z,8.70
2017-12-21T07:38:52.391Z,9.10
2017-12-21T07:41:19.872Z,10.07
2017-12-21T07:43:48.572Z,11.50
2017-12-21T07:46:16.846Z,9.27
2017-12-21T07:48:44.472Z,12.13
2017-12-21T07:51:12.019Z,12.73
2017-12-21T07:53:39.562Z,10.93
2017-12-21T07:56:07.014Z,11.60
2017-12-21T07:58:34.550Z,12.70
2017-12-21T08:01:02.034Z,13.10
2017-12-21T08:03:29.521Z,11.40
2017-12-21T08:05:57.005Z,12.57
2017-12-21T08:08:24.488Z,13.20
2017-12-21T08:10:51.972Z,13.40
2017-12-21T08:13:19.468Z,14.20
2017-12-21T08:15:46.968Z,11.80
2017-12-21T08:18:15.217Z,13.20
2017-12-21T08:20:42.701Z,14.00
2017-12-21T08:23:10.937Z,13.40
2017-12-21T08:25:38.411Z,13.47
2017-12-21T08:28:05.927Z,13.30
2017-12-21T08:30:33.442Z,14.27
2017-12-21T08:33:01.742Z,14.03
2017-12-21T08:35:29.248Z,14.57
2017-12-21T08:37:56.700Z,14.47
2017-12-21T08:40:24.200Z,14.57
2017-12-21T08:42:51.671Z,14.90
2017-12-21T08:45:19.148Z,16.27
2017-12-21T08:47:46.690Z,14.80
2017-12-21T08:50:14.165Z,16.17
2017-12-21T08:52:41.641Z,18.70
2017-12-21T08:55:09.096Z,15.80
2017-12-21T08:57:36.570Z,13.20
2017-12-21T09:00:04.051Z,14.87
2017-12-21T09:02:31.845Z,14.30
2017-12-21T09:04:59.323Z,15.17
2017-12-21T09:07:26.781Z,14.30
2017-12-21T09:09:54.463Z,20.73
2017-12-21T09:12:21.946Z,17.03
2017-12-21T09:14:49.527Z,15.00
2017-12-21T09:17:17.049Z,14.97
2017-12-21T09:19:44.497Z,14.80
2017-12-21T09:22:11.985Z,14.63
2017-12-21T09:24:40.278Z,14.30
2017-12-21T09:27:07.758Z,17.43
2017-12-21T09:29:35.235Z,16.60
2017-12-21T09:32:02.722Z,18.70
2017-12-21T09:34:30.476Z,15.97
2017-12-21T09:36:57.957Z,14.30
2017-12-21T09:39:25.420Z,15.20
2017-12-21T09:41:52.943Z,15.37
2017-12-21T09:44:21.230Z,13.23
2017-12-21T09:46:48.787Z,13.23
2017-12-21T09:49:17.103Z,13.37
2017-12-21T09:51:44.586Z,12.60
2017-12-21T09:54:12.086Z,12.53
2017-12-21T09:56:39.608Z,14.83
2017-12-21T09:59:07.089Z,15.90
2017-12-21T10:01:34.579Z,13.97
2017-12-21T10:04:02.075Z,14.77
2017-12-21T10:06:29.620Z,16.00
2017-12-21T10:08:57.136Z,21.63
2017-12-21T10:11:24.656Z,14.70
2017-12-21T10:13:52.155Z,13.30
2017-12-21T10:16:19.778Z,12.63
2017-12-21T10:18:47.286Z,16.23
2017-12-21T10:21:15.573Z,14.30
2017-12-21T10:23:43.018Z,14.20
2017-12-21T10:26:17.674Z,14.27
2017-12-21T10:28:45.217Z,14.70
2017-12-21T10:31:13.476Z,14.00
2017-12-21T10:33:45.558Z,12.00
2017-12-21T10:36:13.058Z,15.13
2017-12-21T10:38:40.587Z,14.10
2017-12-21T10:41:08.057Z,11.03
2017-12-21T10:43:35.535Z,12.30
2017-12-21T10:46:03.018Z,13.10
2017-12-21T10:48:30.513Z,15.60
2017-12-21T10:50:57.997Z,13.73
2017-12-21T10:53:25.458Z,10.73
2017-12-21T10:55:52.998Z,12.47
2017-12-21T10:58:20.509Z,11.90
2017-12-21T11:00:47.967Z,11.23
2017-12-21T11:03:15.511Z,10.33
2017-12-21T11:05:42.986Z,11.93
2017-12-21T11:08:10.472Z,10.17
2017-12-21T11:10:37.927Z,9.83
2017-12-21T11:13:05.385Z,11.00
2017-12-21T11:15:32.888Z,8.70
2017-12-21T11:18:00.360Z,9.97
2017-12-21T11:20:27.830Z,9.60
2017-12-21T11:22:55.334Z,9.07
2017-12-21T11:25:22.804Z,9.90
2017-12-21T11:27:50.346Z,10.50
2017-12-21T11:30:18.710Z,11.40
2017-12-21T11:32:46.200Z,10.17
2017-12-21T11:35:13.687Z,8.27
2017-12-21T11:37:41.163Z,8.50
2017-12-21T11:40:08.658Z,9.40
2017-12-21T11:42:36.139Z,10.17
2017-12-21T11:45:03.628Z,8.23
2017-12-21T11:47:31.090Z,8.03
2017-12-21T11:49:59.694Z,9.40
2017-12-21T11:52:27.174Z,6.50
2017-12-21T11:54:54.649Z,7.43
2017-12-21T11:57:22.122Z,5.70
2017-12-21T11:59:49.613Z,5.27
2017-12-21T12:02:17.836Z,6.53
2017-12-21T12:04:45.332Z,4.60
2017-12-21T12:07:12.800Z,4.70
2017-12-21T12:09:41.058Z,5.10
2017-12-21T12:12:08.552Z,4.70
2017-12-21T12:14:36.036Z,5.20
2017-12-21T12:17:03.516Z,4.90
2017-12-21T12:19:30.971Z,4.50
2017-12-21T12:21:58.510Z,5.10
2017-12-21T12:24:25.996Z,4.17
2017-12-21T12:26:53.458Z,4.83
2017-12-21T12:29:21.236Z,6.50
2017-12-21T12:31:48.694Z,4.73
2017-12-21T12:34:16.149Z,5.20
2017-12-21T12:36:43.659Z,5.40
2017-12-21T12:39:11.135Z,5.90
2017-12-21T12:41:38.632Z,6.13
2017-12-21T12:44:06.868Z,5.47
2017-12-21T12:46:34.352Z,5.43
2017-12-21T12:49:01.829Z,6.60
2017-12-21T12:51:30.078Z,6.80
2017-12-21T12:53:57.584Z,7.37
2017-12-21T12:56:25.043Z,6.90
2017-12-21T12:58:52.504Z,5.50
2017-12-21T13:01:20.014Z,14.53
2017-12-21T13:03:47.530Z,10.07
2017-12-21T13:06:15.023Z,11.07
2017-12-21T13:08:42.484Z,10.70
2017-12-21T13:11:10.009Z,6.13
2017-12-21T13:13:37.497Z,7.80
2017-12-21T13:16:04.955Z,6.23
2017-12-21T13:18:32.429Z,6.10
2017-12-21T13:21:00.664Z,8.63
2017-12-21T13:23:28.135Z,6.10
2017-12-21T13:25:55.613Z,6.97
2017-12-21T13:28:23.073Z,7.07
2017-12-21T13:30:50.557Z,7.10
2017-12-21T13:33:18.019Z,6.97
2017-12-21T13:35:45.490Z,7.00
2017-12-21T13:38:12.998Z,6.17
2017-12-21T13:40:41.222Z,6.53
2017-12-21T13:43:08.703Z,5.70
2017-12-21T13:45:36.194Z,6.67
2017-12-21T13:48:04.439Z,7.67
2017-12-21T13:50:31.935Z,6.20
2017-12-21T13:53:00.152Z,5.87
2017-12-21T13:55:27.680Z,6.33
2017-12-21T13:57:55.292Z,6.77
2017-12-21T14:00:22.815Z,10.00
2017-12-21T14:02:50.423Z,8.50
2017-12-21T14:05:17.926Z,6.13
2017-12-21T14:07:45.515Z,6.67
2017-12-21T14:10:13.051Z,6.97
2017-12-21T14:12:40.633Z,7.10
2017-12-21T14:15:08.154Z,7.30
2017-12-21T14:17:35.623Z,10.73
2017-12-21T14:20:03.132Z,8.60
2017-12-21T14:22:30.646Z,8.63
2017-12-21T14:24:58.158Z,7.60
2017-12-21T14:27:25.725Z,7.57
2017-12-21T14:29:53.244Z,5.63
2017-12-21T14:32:20.718Z,6.40
2017-12-21T14:34:48.183Z,6.90
2017-12-21T14:37:15.664Z,7.63
2017-12-21T14:39:43.890Z,7.17
2017-12-21T14:42:11.377Z,7.90
2017-12-21T14:44:38.857Z,7.73
2017-12-21T14:47:07.086Z,8.03
2017-12-21T14:49:34.557Z,8.73
2017-12-21T14:52:02.041Z,8.50
2017-12-21T14:54:30.300Z,8.70
2017-12-21T14:56:58.570Z,8.57
2017-12-21T14:59:26.051Z,9.77
2017-12-21T15:01:54.293Z,11.40
2017-12-21T15:04:21.816Z,11.20
2017-12-21T15:06:49.296Z,9.40
2017-12-21T15:09:16.863Z,9.50
2017-12-21T15:11:44.363Z,8.23
2017-12-21T15:14:19.857Z,8.50
2017-12-21T15:16:47.346Z,7.43
2017-12-21T15:19:14.826Z,7.47
2017-12-21T15:21:42.330Z,7.97
2017-12-21T15:24:09.804Z,9.50
2017-12-21T15:26:37.274Z,9.80
2017-12-21T15:29:04.765Z,11.17
2017-12-21T15:31:32.272Z,10.90
2017-12-21T15:33:59.746Z,11.43
2017-12-21T15:36:27.271Z,12.77
2017-12-21T15:38:54.735Z,11.03
2017-12-21T15:41:22.233Z,12.80
2017-12-21T15:43:50.475Z,12.33
2017-12-21T15:46:17.965Z,11.90
2017-12-21T15:48:46.217Z,11.77
2017-12-21T15:51:13.710Z,11.63
2017-12-21T15:53:41.949Z,12.83
2017-12-21T15:56:09.431Z,11.80
2017-12-21T15:58:37.688Z,11.93
2017-12-21T16:01:05.168Z,10.50
2017-12-21T16:03:37.017Z,11.27
2017-12-21T16:06:04.500Z,11.40
2017-12-21T16:08:31.978Z,10.13
2017-12-21T16:10:59.472Z,8.00
2017-12-21T16:13:26.955Z,11.17
2017-12-21T16:15:57.015Z,8.80
2017-12-21T16:18:24.546Z,10.70
2017-12-21T16:20:52.005Z,10.20
2017-12-21T16:23:20.305Z,10.80
2017-12-21T16:25:47.788Z,11.20
2017-12-21T16:28:15.253Z,9.43
2017-12-21T16:30:42.762Z,8.50
2017-12-21T16:33:10.355Z,9.17
2017-12-21T16:35:37.827Z,8.73
2017-12-21T16:38:05.320Z,10.00
2017-12-21T16:40:32.826Z,8.77
2017-12-21T16:43:00.329Z,10.13
2017-12-21T16:45:28.595Z,9.10
2017-12-21T16:47:56.055Z,11.40
2017-12-21T16:50:23.604Z,10.90
2017-12-21T16:52:51.095Z,10.87
2017-12-21T16:55:18.666Z,10.10
2017-12-21T16:57:46.124Z,11.80
2017-12-21T17:00:13.621Z,13.00
2017-12-21T17:02:41.137Z,11.83
2017-12-21T17:05:08.630Z,12.73
2017-12-21T17:07:36.158Z,11.30
2017-12-21T17:10:03.647Z,11.57
2017-12-21T17:12:31.527Z,13.17
2017-12-21T17:14:59.132Z,13.50
2017-12-21T17:17:27.441Z,12.50
2017-12-21T17:19:54.986Z,11.53
2017-12-21T17:22:22.536Z,12.80
2017-12-21T17:24:50.158Z,11.90
2017-12-21T17:27:17.677Z,13.60
2017-12-21T17:29:45.199Z,13.27
2017-12-21T17:32:12.805Z,14.80
2017-12-21T17:34:40.375Z,17.03
2017-12-21T17:37:07.938Z,15.67
2017-12-21T17:39:35.442Z,12.83
2017-12-21T17:42:03.001Z,14.43
2017-12-21T17:44:30.553Z,15.43
2017-12-21T17:46:58.976Z,15.40
2017-12-21T17:49:26.500Z,11.20
2017-12-21T17:51:54.111Z,12.43
2017-12-21T17:54:21.669Z,10.50
2017-12-21T17:56:49.188Z,10.73
2017-12-21T17:59:16.893Z,12.30
2017-12-21T18:01:45.214Z,12.03
2017-12-21T18:04:13.534Z,9.23
2017-12-21T18:06:41.030Z,11.00
2017-12-21T18:09:09.295Z,11.10
2017-12-21T18:11:36.765Z,10.27
2017-12-21T18:14:05.040Z,12.70
2017-12-21T18:16:33.295Z,12.23
2017-12-21T18:19:00.779Z,11.87
2017-12-21T18:21:29.024Z,13.23
2017-12-21T18:23:56.495Z,12.63
2017-12-21T18:26:23.973Z,12.97
2017-12-21T18:28:54.441Z,13.30
2017-12-21T18:31:25.101Z,14.70
2017-12-21T18:33:52.607Z,13.77
2017-12-21T18:36:21.530Z,13.97
2017-12-21T18:38:50.374Z,12.47
2017-12-21T18:41:18.959Z,10.87
2017-12-21T18:43:48.180Z,10.77
2017-12-21T18:46:16.051Z,8.90
2017-12-21T18:48:43.538Z,10.57
2017-12-21T18:51:11.144Z,10.40
2017-12-21T18:53:40.801Z,10.50
2017-12-21T18:56:09.059Z,9.80
2017-12-21T18:58:38.639Z,9.60
2017-12-21T19:01:06.135Z,9.70
2017-12-21T19:03:33.615Z,9.57
2017-12-21T19:06:02.722Z,10.50
2017-12-21T19:08:31.143Z,9.93
2017-12-21T19:10:59.712Z,9.87
2017-12-21T19:13:29.538Z,10.00
2017-12-21T19:15:58.052Z,8.87
2017-12-21T19:18:27.118Z,9.40
2017-12-21T19:20:54.672Z,10.00
2017-12-21T19:23:23.176Z,12.07
2017-12-21T19:25:50.643Z,14.50
2017-12-21T19:28:18.569Z,15.13
2017-12-21T19:30:50.870Z,14.83
2017-12-21T19:33:19.443Z,12.07
2017-12-21T19:35:48.256Z,13.67
2017-12-21T19:38:16.482Z,14.97
2017-12-21T19:40:45.671Z,14.77
2017-12-21T19:43:14.822Z,15.10
2017-12-21T19:45:42.374Z,12.57
2017-12-21T19:48:10.663Z,12.37
2017-12-21T19:50:38.167Z,12.30
2017-12-21T19:53:07.318Z,11.80
2017-12-21T19:55:36.984Z,12.50
2017-12-21T19:58:04.541Z,12.10
2017-12-21T20:00:33.670Z,13.63
2017-12-21T20:03:01.499Z,13.07
2017-12-21T20:05:29.757Z,11.73
2017-12-21T20:07:59.753Z,14.37
2017-12-21T20:10:27.253Z,13.63
2017-12-21T20:12:55.578Z,13.77
2017-12-21T20:15:24.707Z,14.80
2017-12-21T20:17:52.248Z,14.10
2017-12-21T20:20:21.089Z,13.50
2017-12-21T20:22:52.238Z,15.23
2017-12-21T20:25:19.778Z,12.43
2017-12-21T20:27:47.284Z,12.73
2017-12-21T20:30:17.060Z,11.93
2017-12-21T20:32:46.444Z,12.30
2017-12-21T20:35:17.409Z,13.57
2017-12-21T20:37:44.999Z,13.90
2017-12-21T20:40:13.923Z,12.23
2017-12-21T20:42:43.020Z,17.30
2017-12-21T20:45:11.906Z,14.67
2017-12-21T20:47:40.403Z,12.73
2017-12-21T20:50:09.186Z,14.57
2017-12-21T20:52:37.722Z,12.93
2017-12-21T20:55:06.173Z,13.43
2017-12-21T20:57:38.280Z,12.47
2017-12-21T21:02:38.263Z,12.53
2017-12-21T21:05:07.766Z,14.00
2017-12-21T21:07:37.566Z,12.57
2017-12-21T21:10:08.685Z,14.67
2017-12-21T21:12:37.846Z,14.77
2017-12-21T21:15:05.617Z,15.60
2017-12-21T21:17:33.242Z,14.57
2017-12-21T21:20:02.928Z,14.77
2017-12-21T21:22:30.639Z,18.20
2017-12-21T21:24:59.278Z,17.53
2017-12-21T21:27:29.264Z,18.17
2017-12-21T21:29:57.536Z,19.20
2017-12-21T21:32:27.847Z,20.37
2017-12-21T21:34:57.164Z,23.47
2017-12-21T21:37:24.685Z,19.93
2017-12-21T21:39:52.245Z,19.77
2017-12-21T21:42:19.760Z,15.77
2017-12-21T21:44:47.727Z,17.40
2017-12-21T21:47:15.233Z,17.50
2017-12-21T21:49:43.471Z,16.93
2017-12-21T21:52:11.391Z,17.20
2017-12-21T21:54:38.894Z,18.40
2017-12-21T21:57:07.668Z,15.47
2017-12-21T21:59:35.631Z,19.50
2017-12-21T22:02:03.183Z,20.30
2017-12-21T22:04:31.211Z,24.90
2017-12-21T22:06:59.824Z,25.00
2017-12-21T22:09:27.810Z,27.07
2017-12-21T22:11:56.362Z,25.20
2017-12-21T22:14:24.240Z,29.77
2017-12-21T22:16:51.826Z,24.47
2017-12-21T22:19:19.339Z,36.30
2017-12-21T22:21:48.065Z,35.40
2017-12-21T22:24:15.929Z,36.20
2017-12-21T22:26:45.240Z,38.90
2017-12-21T22:29:13.892Z,32.07
2017-12-21T22:31:42.271Z,33.40
2017-12-21T22:34:11.550Z,30.57
2017-12-21T22:36:40.446Z,29.27
2017-12-21T22:39:07.942Z,34.73
2017-12-21T22:41:35.440Z,38.70
2017-12-21T22:44:03.687Z,30.27
2017-12-21T22:46:31.206Z,22.13
2017-12-21T22:48:58.690Z,30.80
2017-12-21T22:51:26.161Z,30.00
2017-12-21T22:53:53.629Z,24.70
2017-12-21T22:56:21.125Z,22.17
2017-12-21T22:58:48.618Z,21.90
2017-12-21T23:01:16.101Z,27.60
2017-12-21T23:03:43.599Z,26.60
2017-12-21T23:06:11.083Z,30.97
2017-12-21T23:08:38.567Z,26.20
2017-12-21T23:11:06.079Z,34.10
2017-12-21T23:13:33.539Z,29.57
2017-12-21T23:16:01.044Z,29.10
2017-12-21T23:18:28.563Z,27.70
2017-12-21T23:20:56.028Z,31.40
2017-12-21T23:23:23.508Z,29.60
2017-12-21T23:25:51.062Z,39.37
2017-12-21T23:28:18.524Z,30.37
2017-12-21T23:30:46.004Z,27.27
2017-12-21T23:33:13.482Z,29.00
2017-12-21T23:35:41.739Z,28.90
2017-12-21T23:38:09.198Z,24.07
2017-12-21T23:40:37.060Z,24.33
2017-12-21T23:43:04.534Z,17.60
2017-12-21T23:45:31.998Z,27.17
2017-12-21T23:47:59.764Z,26.30
2017-12-21T23:50:27.264Z,25.93
2017-12-21T23:52:54.744Z,20.00
2017-12-21T23:55:22.231Z,25.57
2017-12-21T23:57:49.807Z,25.97
